Terminal Aerodrome Forecast
Issued by NWS

Home | Current Version | Previous Version | Text Only | Print | Product List | Glossary On
Versions: 1 2 3 4 5 6 7 8 9 10 11 12 13 14 15 16
000
FTUS45 KGJT 181120
TAFVEL
TAF
KVEL 181120Z 1812/1912 28003KT P6SM BKN250
     FM181900 20010G20KT P6SM SCT100 BKN250
     FM190000 27006KT P6SM SCT100 BKN150
     FM190700 28006KT P6SM OVC100=

USA.gov is the U.S. government's official web portal to all federal, state and local government web resources and services.